Time;durP1;ratioP1;P1;durP2;ratioP2;P2;SDS_P1;SDS_P2;PMS_P1;PMS_P2;Temp;Humidity;BMP_temperature;BMP_pressure;BME280_temperature;BME280_humidity;BME280_pressure;Samples;Min_cycle;Max_cycle;Signal;HPM_P1;HPM_P2
2021/08/08 00:00:12;;;;;;;8.47;5.50;;;;;;;14.86;90.13;100060.69;2115894;28;20484;-60
2021/08/08 00:01:12;;;;;;;6.33;4.40;;;;;;;14.87;90.81;100062.34;2090284;28;20021;-61
2021/08/08 00:02:12;;;;;;;5.50;5.00;;;;;;;14.87;90.61;100062.34;2082097;28;20048;-61
2021/08/08 00:03:13;;;;;;;8.25;4.97;;;;;;;14.87;90.67;100063.19;2098589;28;20103;-60
2021/08/08 00:04:13;;;;;;;8.87;6.33;;;;;;;14.85;90.36;100061.63;2106940;28;20028;-60
2021/08/08 00:05:13;;;;;;;6.93;5.17;;;;;;;14.84;89.85;100068.66;2115341;28;20030;-62
2021/08/08 00:06:13;;;;;;;8.07;5.30;;;;;;;14.90;91.09;100062.13;2106999;28;20022;-60
2021/08/08 00:07:14;;;;;;;7.13;4.43;;;;;;;14.90;90.87;100076.13;2106936;28;20444;-62
2021/08/08 00:08:15;;;;;;;8.75;5.60;;;;;;;14.89;90.61;100074.41;2107043;28;20365;-62
2021/08/08 00:09:15;;;;;;;9.47;5.73;;;;;;;14.86;90.74;100074.66;2098577;28;20030;-64
2021/08/08 00:10:15;;;;;;;12.37;6.40;;;;;;;14.83;90.64;100080.13;2107004;28;20020;-61
2021/08/08 00:11:15;;;;;;;6.03;5.23;;;;;;;14.78;90.73;100079.66;2115902;28;20084;-63
2021/08/08 00:12:16;;;;;;;8.60;5.73;;;;;;;14.76;90.93;100066.59;2106971;28;20012;-60
2021/08/08 00:13:16;;;;;;;10.20;7.33;;;;;;;14.76;91.11;100073.63;2106925;28;20020;-62
2021/08/08 00:14:16;;;;;;;12.93;6.53;;;;;;;14.77;91.45;100075.31;2106916;28;20070;-63
2021/08/08 00:15:16;;;;;;;8.60;5.80;;;;;;;14.75;91.03;100078.03;2106859;28;20012;-62
2021/08/08 00:16:16;;;;;;;8.00;5.17;;;;;;;14.73;91.06;100079.09;2098449;28;20027;-61
2021/08/08 00:17:17;;;;;;;8.57;5.80;;;;;;;14.76;90.84;100076.25;2106799;28;20020;-62
2021/08/08 00:18:17;;;;;;;10.20;5.13;;;;;;;14.77;90.82;100077.94;2106798;28;20012;-63
2021/08/08 00:19:17;;;;;;;9.47;5.67;;;;;;;14.78;90.43;100075.22;2098475;28;20504;-63
2021/08/08 00:20:17;;;;;;;7.43;6.03;;;;;;;14.78;90.39;100085.72;2081963;28;20021;-61
2021/08/08 00:21:18;;;;;;;6.17;5.13;;;;;;;14.77;90.43;100077.94;2098332;28;20390;-61
2021/08/08 00:22:18;;;;;;;7.80;4.43;;;;;;;14.77;90.58;100086.66;2106614;28;20046;-62
2021/08/08 00:23:18;;;;;;;9.37;4.37;;;;;;;14.77;91.00;100083.19;2090180;28;20143;-61
2021/08/08 00:24:19;;;;;;;10.37;5.77;;;;;;;14.76;90.81;100066.59;2090183;28;20049;-60
2021/08/08 00:25:19;;;;;;;10.53;5.17;;;;;;;14.75;90.65;100080.66;2098372;28;20048;-61
2021/08/08 00:26:19;;;;;;;13.63;5.20;;;;;;;14.76;90.98;100081.50;2098308;28;20052;-61
2021/08/08 00:27:19;;;;;;;10.70;4.33;;;;;;;14.77;90.66;100077.94;2106691;28;20023;-61
2021/08/08 00:28:19;;;;;;;13.70;5.83;;;;;;;14.77;90.86;100078.78;2106651;28;20016;-60
2021/08/08 00:29:20;;;;;;;7.03;5.53;;;;;;;14.78;90.90;100074.38;2106773;28;20012;-61
2021/08/08 00:30:20;;;;;;;10.67;4.50;;;;;;;14.77;90.92;100086.66;2098217;28;20024;-60
2021/08/08 00:31:23;;;;;;;12.13;5.17;;;;;;;14.76;91.16;100076.25;2090017;28;20021;-60
2021/08/08 00:32:24;;;;;;;4.88;2.50;;;;;;;14.84;91.82;100083.59;2115450;27;20074;-60
2021/08/08 00:33:25;;;;;;;10.18;6.95;;;;;;;14.83;90.85;100082.75;2123263;27;20490;-60
2021/08/08 00:34:25;;;;;;;10.48;5.70;;;;;;;14.82;90.67;100070.59;2115751;28;20101;-60
2021/08/08 00:35:25;;;;;;;10.07;4.87;;;;;;;14.85;91.02;100083.47;2106667;28;20076;-60
2021/08/08 00:36:25;;;;;;;10.07;5.23;;;;;;;14.86;90.36;100086.94;2098249;28;20021;-60
2021/08/08 00:37:25;;;;;;;7.40;5.60;;;;;;;14.86;90.46;100093.06;2098292;28;20035;-61
2021/08/08 00:38:27;;;;;;;10.87;5.30;;;;;;;14.85;90.53;100091.34;2106697;28;20042;-61
2021/08/08 00:39:27;;;;;;;8.68;5.60;;;;;;;14.85;90.81;100090.53;2106761;28;20020;-60
2021/08/08 00:40:28;;;;;;;10.05;6.22;;;;;;;14.83;90.11;100090.66;2106808;28;20116;-59
2021/08/08 00:41:28;;;;;;;11.63;6.80;;;;;;;14.82;90.41;100083.72;2106598;28;20081;-60
2021/08/08 00:42:28;;;;;;;8.93;5.83;;;;;;;14.83;90.53;100088.00;2106607;28;20277;-61
2021/08/08 00:43:28;;;;;;;8.43;5.33;;;;;;;14.82;90.16;100088.13;2115592;28;20028;-60
2021/08/08 00:44:29;;;;;;;10.70;6.33;;;;;;;14.85;90.48;100090.53;2098264;28;20038;-60
2021/08/08 00:45:29;;;;;;;5.03;4.10;;;;;;;14.86;91.06;100089.56;2089789;28;20033;-62
2021/08/08 00:46:29;;;;;;;8.80;5.80;;;;;;;14.87;90.55;100089.47;2106623;28;20454;-60
2021/08/08 00:47:29;;;;;;;11.37;5.40;;;;;;;14.91;90.46;100095.31;2106458;28;20028;-61
2021/08/08 00:48:29;;;;;;;12.53;5.90;;;;;;;14.91;89.44;100104.06;2090148;28;20063;-62
2021/08/08 00:49:30;;;;;;;12.17;6.70;;;;;;;14.90;89.81;100086.63;2114828;28;20027;-61
2021/08/08 00:50:30;;;;;;;10.83;6.07;;;;;;;14.89;89.15;100095.44;2098244;28;20036;-60
2021/08/08 00:51:30;;;;;;;7.17;5.30;;;;;;;14.89;90.05;100098.06;2098273;28;20016;-58
2021/08/08 00:52:32;;;;;;;7.85;5.45;;;;;;;14.88;90.16;100093.75;2098151;28;20049;-60
2021/08/08 00:53:33;;;;;;;13.10;5.72;;;;;;;14.90;89.30;100104.16;2098405;28;20397;-61
2021/08/08 00:54:33;;;;;;;18.23;6.83;;;;;;;14.88;89.43;100098.19;2106665;28;20024;-60
2021/08/08 00:55:33;;;;;;;13.87;6.90;;;;;;;14.89;89.25;100098.06;2103127;28;20045;-59
2021/08/08 00:56:35;;;;;;;15.47;5.87;;;;;;;14.89;89.85;100105.13;2089926;28;20067;-61
2021/08/08 00:57:35;;;;;;;14.20;6.63;;;;;;;14.87;89.54;100099.97;2081667;28;20029;-60
2021/08/08 00:58:35;;;;;;;11.03;6.23;;;;;;;14.86;88.99;100103.56;2089880;28;20021;-59
2021/08/08 00:59:36;;;;;;;14.00;6.67;;;;;;;14.86;89.56;100111.44;2089935;28;20027;-61
2021/08/08 01:00:36;;;;;;;11.83;6.40;;;;;;;14.86;89.77;100097.47;2098017;28;20025;-60
2021/08/08 01:01:40;;;;;;;10.33;6.27;;;;;;;14.85;89.70;100107.13;2098077;28;20056;-58
2021/08/08 01:02:45;;;;;;;7.22;6.05;;;;;;;14.86;89.83;100108.81;2089775;28;20525;-60
2021/08/08 01:03:45;;;;;;;11.32;5.45;;;;;;;14.87;90.43;100107.84;2091026;28;20037;-60
2021/08/08 01:04:50;;;;;;;14.40;7.27;;;;;;;14.87;89.97;100107.00;2106538;28;20023;-61
2021/08/08 01:05:51;;;;;;;11.63;6.70;;;;;;;14.87;89.98;100126.25;2089854;28;20021;-61
2021/08/08 01:07:04;;;;;;;;;;;;;;;14.88;90.88;100120.03;2074220;28;20458;-60
2021/08/08 01:08:04;;;;;;;;;;;;;;;14.87;90.10;100121.00;2091988;28;19947;-60
2021/08/08 01:09:05;;;;;;;13.52;5.63;;;;;;;14.88;90.09;100116.59;2098720;28;19908;-58
2021/08/08 01:10:06;;;;;;;9.40;6.93;;;;;;;14.87;90.19;100121.00;2089950;28;20033;-60
2021/08/08 01:11:06;;;;;;;12.60;6.40;;;;;;;14.89;90.22;100126.13;2081623;28;20033;-60
2021/08/08 01:12:06;;;;;;;13.53;5.73;;;;;;;14.87;90.74;100126.25;2081594;28;20036;-61
2021/08/08 01:13:06;;;;;;;12.03;6.20;;;;;;;14.86;89.77;100134.22;2081432;28;20041;-62
2021/08/08 01:14:07;;;;;;;13.13;6.37;;;;;;;14.85;90.07;100130.75;2089779;28;20028;-61
2021/08/08 01:15:07;;;;;;;13.25;6.53;;;;;;;14.88;90.22;100133.16;2081388;28;20554;-60
2021/08/08 01:16:08;;;;;;;12.48;7.38;;;;;;;14.86;90.13;100129.81;2089646;28;20540;-60
2021/08/08 01:17:08;;;;;;;13.53;6.63;;;;;;;14.84;89.95;100131.72;2089758;28;20110;-59
2021/08/08 01:18:10;;;;;;;12.85;7.00;;;;;;;14.83;90.01;100130.03;2089814;28;20070;-60
2021/08/08 01:19:11;;;;;;;11.55;5.97;;;;;;;14.88;90.15;100132.34;2097900;28;20051;-60
2021/08/08 01:20:12;;;;;;;14.05;8.10;;;;;;;14.86;88.93;100134.22;2081559;28;20070;-60
2021/08/08 01:21:12;;;;;;;16.63;6.05;;;;;;;14.87;89.17;100131.50;2089941;28;20025;-60
2021/08/08 01:22:12;;;;;;;12.67;6.93;;;;;;;14.86;89.13;100124.56;2098056;28;20052;-61
2021/08/08 01:23:15;;;;;;;17.50;6.70;;;;;;;14.84;89.21;100126.47;2089649;28;20078;-60
2021/08/08 01:24:15;;;;;;;13.43;7.13;;;;;;;14.84;89.09;100136.97;2089731;28;20564;-59
2021/08/08 01:25:16;;;;;;;18.63;7.63;;;;;;;14.85;89.29;100138.63;2089777;28;20036;-59
2021/08/08 01:26:16;;;;;;;15.20;5.83;;;;;;;14.83;89.08;100135.28;2097538;28;20399;-60
2021/08/08 01:27:16;;;;;;;18.33;7.60;;;;;;;14.83;89.16;100144.94;2097941;28;20017;-60
2021/08/08 01:28:16;;;;;;;12.60;6.77;;;;;;;14.84;89.45;100136.97;2081564;28;20017;-61
2021/08/08 01:29:16;;;;;;;9.83;5.07;;;;;;;14.85;89.36;100133.38;2081435;28;20021;-60
2021/08/08 01:30:17;;;;;;;12.60;6.70;;;;;;;14.83;88.62;100132.66;2089469;28;20049;-59
2021/08/08 01:31:17;;;;;;;14.50;7.40;;;;;;;14.88;89.30;100143.66;2081320;28;20033;-59
2021/08/08 01:32:17;;;;;;;14.93;7.23;;;;;;;14.88;89.71;100137.59;2089727;28;20027;-60
2021/08/08 01:33:17;;;;;;;18.47;6.60;;;;;;;14.89;89.43;100139.28;2098551;28;20025;-59
2021/08/08 01:34:18;;;;;;;16.07;7.13;;;;;;;14.90;89.33;100140.94;2098015;28;20470;-59
2021/08/08 01:35:18;;;;;;;19.57;7.00;;;;;;;14.88;88.59;100137.59;2098038;28;20019;-59
2021/08/08 01:36:18;;;;;;;13.83;6.63;;;;;;;14.86;89.32;100145.59;2097936;28;20075;-59
2021/08/08 01:37:20;;;;;;;13.73;7.33;;;;;;;14.84;88.09;100144.84;2098058;28;20149;-58
2021/08/08 01:38:20;;;;;;;;;;;;;;;14.85;88.75;100154.41;2090185;28;20075;-61
2021/08/08 01:39:20;;;;;;;11.93;5.83;;;;;;;14.86;88.97;100148.22;2089571;28;19978;-59
2021/08/08 01:40:36;;;;;;;22.27;6.47;;;;;;;14.88;88.57;100159.44;2081463;28;20017;-60
2021/08/08 01:41:40;;;;;;;15.18;6.15;;;;;;;14.88;88.87;100153.38;2091676;28;20482;-59
2021/08/08 01:42:41;;;;;;;12.27;6.53;;;;;;;14.88;89.12;100159.44;2098368;28;20020;-59
2021/08/08 01:43:43;;;;;;;19.55;6.28;;;;;;;14.87;89.02;100157.75;2089675;28;20525;-58
2021/08/08 01:44:49;;;;;;;21.10;6.47;;;;;;;14.88;88.77;100159.44;2081778;28;20116;-60
2021/08/08 01:45:49;;;;;;;10.80;5.60;;;;;;;14.89;89.09;100163.72;2082245;28;20445;-59
2021/08/08 01:46:55;;;;;;;13.97;6.17;;;;;;;14.89;88.52;100163.72;2081512;28;20029;-59
2021/08/08 01:47:58;;;;;;;18.45;6.82;;;;;;;14.88;89.04;100164.69;2081913;28;20083;-60
2021/08/08 01:48:58;;;;;;;13.75;6.05;;;;;;;14.89;88.83;100160.28;2073700;28;20022;-60
2021/08/08 01:49:59;;;;;;;15.17;5.73;;;;;;;14.88;88.45;100167.31;2081435;28;20025;-60
2021/08/08 01:50:59;;;;;;;13.48;6.45;;;;;;;14.88;88.98;100169.13;2089616;28;20453;-60
2021/08/08 01:52:00;;;;;;;19.37;6.40;;;;;;;14.87;88.39;100168.28;2081324;28;20063;-60
2021/08/08 01:53:00;;;;;;;19.90;7.80;;;;;;;14.87;88.72;100172.69;2073221;28;20029;-61
2021/08/08 01:54:00;;;;;;;16.55;6.05;;;;;;;14.86;88.48;100169.22;2089643;28;20104;-60
2021/08/08 01:55:00;;;;;;;17.90;6.30;;;;;;;14.84;88.47;100173.75;2089504;28;20040;-61
2021/08/08 01:56:01;;;;;;;15.53;6.80;;;;;;;14.81;87.73;100166.06;2088203;28;20183;-60
2021/08/08 01:57:01;;;;;;;12.80;5.67;;;;;;;14.80;87.86;100165.25;2106076;28;20089;-60
2021/08/08 01:58:02;;;;;;;14.82;5.30;;;;;;;14.81;88.52;100171.31;2097860;28;20024;-60
2021/08/08 01:59:02;;;;;;;11.93;6.03;;;;;;;14.82;88.81;100170.41;2097654;28;20515;-59
2021/08/08 02:00:06;;;;;;;16.43;5.97;;;;;;;14.82;88.56;100167.78;2106217;28;20028;-59
2021/08/08 02:01:06;;;;;;;23.73;6.25;;;;;;;14.80;88.52;100167.88;2106028;28;20043;-61
2021/08/08 02:02:13;;;;;;;15.73;5.73;;;;;;;14.80;87.84;100173.13;2097930;28;20040;-60
2021/08/08 02:03:13;;;;;;;14.75;6.22;;;;;;;14.81;88.07;100173.94;2090261;28;20013;-62
2021/08/08 02:04:32;;;;;;;20.13;6.50;;;;;;;14.80;87.87;100172.28;2081365;28;20022;-59
2021/08/08 02:05:32;;;;;;;11.90;5.72;;;;;;;14.78;88.55;100174.19;2100534;28;20016;-59
2021/08/08 02:06:32;;;;;;;13.87;6.13;;;;;;;14.74;88.70;100167.41;2106856;28;20095;-59
2021/08/08 02:07:33;;;;;;;13.30;6.87;;;;;;;14.71;88.06;100172.91;2106665;28;20081;-60
2021/08/08 02:08:33;;;;;;;13.80;6.33;;;;;;;14.74;88.68;100177.94;2106265;28;20081;-60
2021/08/08 02:09:33;;;;;;;23.43;8.63;;;;;;;14.76;88.10;100176.88;2097786;28;20473;-60
2021/08/08 02:10:34;;;;;;;11.93;6.65;;;;;;;14.75;87.72;100169.94;2097800;28;20527;-60
2021/08/08 02:11:34;;;;;;;20.13;7.10;;;;;;;14.77;87.60;100177.75;2106222;28;20036;-58
2021/08/08 02:12:34;;;;;;;11.40;6.90;;;;;;;14.78;87.66;100184.69;2106048;28;20024;-59
2021/08/08 02:13:34;;;;;;;12.23;7.47;;;;;;;14.79;88.78;100175.88;2106188;28;20401;-58
2021/08/08 02:14:35;;;;;;;14.40;6.80;;;;;;;14.77;87.62;100172.50;2106098;28;20020;-60
2021/08/08 02:15:35;;;;;;;16.03;6.80;;;;;;;14.72;86.97;100174.59;2089443;28;20029;-60
2021/08/08 02:16:35;;;;;;;13.43;6.03;;;;;;;14.72;87.51;100169.34;2097646;28;20293;-59
2021/08/08 02:17:36;;;;;;;9.70;6.63;;;;;;;14.73;87.75;100168.38;2106025;28;20032;-60
2021/08/08 02:18:36;;;;;;;;;;;;;;;14.73;87.93;100176.25;2106603;28;20058;-62
2021/08/08 02:19:37;;;;;;;20.65;6.88;;;;;;;14.73;87.53;100171.84;2106643;28;19908;-59
2021/08/08 02:20:37;;;;;;;14.57;6.10;;;;;;;14.74;86.99;100183.19;2106745;28;20032;-60
2021/08/08 02:21:38;;;;;;;18.17;7.17;;;;;;;14.73;86.50;100171.84;2106123;28;20024;-59
2021/08/08 02:22:38;;;;;;;17.67;5.85;;;;;;;14.76;86.85;100181.28;2097772;28;20081;-59
2021/08/08 02:23:38;;;;;;;12.13;5.20;;;;;;;14.79;87.71;100186.38;2097761;28;20047;-60
2021/08/08 02:24:38;;;;;;;13.10;5.83;;;;;;;14.79;86.77;100181.94;2106097;28;20031;-61
2021/08/08 02:25:39;;;;;;;12.40;5.50;;;;;;;14.79;87.78;100184.56;2106091;28;20023;-64
2021/08/08 02:26:39;;;;;;;15.13;6.13;;;;;;;14.78;86.74;100184.69;2089507;28;20013;-61
2021/08/08 02:27:40;;;;;;;8.03;5.67;;;;;;;14.77;87.43;100183.00;2089272;28;20492;-60
2021/08/08 02:28:40;;;;;;;13.63;6.68;;;;;;;14.69;86.08;100186.16;2097838;28;20028;-61
2021/08/08 02:29:40;;;;;;;15.47;6.93;;;;;;;14.67;87.13;100183.63;2089453;28;20029;-60
2021/08/08 02:30:41;;;;;;;15.37;6.70;;;;;;;14.63;86.59;100194.44;2097681;28;20039;-60
2021/08/08 02:31:42;;;;;;;11.33;6.37;;;;;;;14.59;86.59;100196.47;2106518;28;20553;-59
2021/08/08 02:32:42;;;;;;;13.63;5.85;;;;;;;14.59;86.94;100182.47;2106089;28;20035;-60
2021/08/08 02:33:43;;;;;;;12.73;5.43;;;;;;;14.56;86.89;100191.41;2097733;28;20108;-60
2021/08/08 02:34:43;;;;;;;13.93;6.37;;;;;;;14.55;86.33;100192.38;2105970;28;20389;-60
2021/08/08 02:35:43;;;;;;;9.37;5.93;;;;;;;14.57;87.26;100198.34;2114485;28;20019;-58
2021/08/08 02:36:43;;;;;;;15.80;6.33;;;;;;;14.56;86.59;100188.78;2097697;28;20056;-59
2021/08/08 02:37:43;;;;;;;14.70;6.27;;;;;;;14.57;86.28;100195.72;2089401;28;20115;-59
2021/08/08 02:38:44;;;;;;;12.43;5.40;;;;;;;14.62;87.97;100195.41;2098544;28;20039;-60
2021/08/08 02:39:44;;;;;;;16.13;5.90;;;;;;;14.62;87.38;100196.25;2107644;28;20040;-59
2021/08/08 02:40:44;;;;;;;26.57;7.10;;;;;;;14.60;86.45;100202.53;2108302;28;20496;-61
2021/08/08 02:41:44;;;;;;;17.10;6.33;;;;;;;14.60;86.37;100200.75;2108232;28;20020;-62
2021/08/08 02:42:44;;;;;;;12.43;6.27;;;;;;;14.61;86.16;100196.34;2107686;28;20031;-60
2021/08/08 02:43:45;;;;;;;14.07;6.50;;;;;;;14.62;86.16;100206.75;2099222;28;20039;-60
2021/08/08 02:44:45;;;;;;;14.03;5.93;;;;;;;14.63;86.14;100197.91;2107633;28;20328;-59
2021/08/08 02:45:50;;;;;;;10.83;5.47;;;;;;;14.62;86.36;100204.13;2090947;28;20063;-61
2021/08/08 02:46:50;;;;;;;18.52;6.70;;;;;;;14.62;85.68;100209.38;2099769;28;20024;-61
2021/08/08 02:47:50;;;;;;;16.50;6.93;;;;;;;14.61;85.03;100215.56;2108210;28;20393;-60
2021/08/08 02:48:50;;;;;;;16.37;6.50;;;;;;;14.64;86.49;100217.97;2108286;28;20044;-60
2021/08/08 02:49:51;;;;;;;14.40;5.83;;;;;;;14.63;86.10;100218.94;2099132;28;20397;-60
2021/08/08 02:50:51;;;;;;;11.30;6.37;;;;;;;14.64;86.36;100217.97;2090882;28;20033;-59
2021/08/08 02:51:51;;;;;;;14.17;6.40;;;;;;;14.63;85.68;100218.06;2099114;28;20048;-59
2021/08/08 02:52:53;;;;;;;14.63;6.10;;;;;;;14.63;86.49;100224.19;2099194;28;20016;-60
2021/08/08 02:53:53;;;;;;;18.33;5.97;;;;;;;14.62;86.21;100225.13;2099361;28;20020;-61
2021/08/08 02:54:54;;;;;;;18.37;6.23;;;;;;;14.61;85.57;100228.69;2108184;28;20389;-61
2021/08/08 02:55:54;;;;;;;15.17;6.90;;;;;;;14.61;85.81;100226.06;2113526;28;20036;-60
2021/08/08 02:56:54;;;;;;;16.03;6.47;;;;;;;14.61;85.61;100235.75;2115998;28;20426;-60
2021/08/08 02:57:54;;;;;;;15.60;6.43;;;;;;;14.57;85.41;100226.41;2116025;28;20079;-60
2021/08/08 02:58:55;;;;;;;15.77;7.03;;;;;;;14.57;86.67;100234.28;2116091;28;20028;-61
2021/08/08 02:59:55;;;;;;;13.47;6.10;;;;;;;14.59;87.61;100235.84;2107475;28;20384;-61
2021/08/08 03:00:55;;;;;;;17.10;5.80;;;;;;;14.59;86.67;100243.72;2115976;28;20031;-59
2021/08/08 03:01:55;;;;;;;16.43;7.03;;;;;;;14.60;86.15;100234.88;2107335;28;20072;-60
2021/08/08 03:02:56;;;;;;;14.25;6.25;;;;;;;14.61;86.61;100233.94;2107523;28;20020;-59
2021/08/08 03:03:56;;;;;;;14.13;6.10;;;;;;;14.62;85.84;100238.25;2116485;28;20044;-61
2021/08/08 03:04:56;;;;;;;10.90;5.03;;;;;;;14.63;87.15;100239.94;2116580;28;20055;-60
2021/08/08 03:05:56;;;;;;;19.03;6.57;;;;;;;14.65;86.61;100240.66;2116530;28;20434;-61
2021/08/08 03:06:57;;;;;;;19.00;7.20;;;;;;;14.63;85.97;100237.31;2115859;28;20031;-60
2021/08/08 03:07:57;;;;;;;12.80;5.57;;;;;;;14.63;86.21;100239.94;2107390;28;20024;-61
2021/08/08 03:08:57;;;;;;;14.63;6.90;;;;;;;14.63;86.04;100244.34;2115934;28;20468;-60
2021/08/08 03:09:57;;;;;;;11.70;5.93;;;;;;;14.65;87.16;100243.28;2107279;28;20501;-60
2021/08/08 03:10:57;;;;;;;24.57;6.93;;;;;;;14.65;86.78;100243.28;2099056;28;20035;-62
2021/08/08 03:11:58;;;;;;;16.30;6.37;;;;;;;14.62;85.59;100251.38;2107443;28;20027;-60
2021/08/08 03:12:58;;;;;;;14.03;5.50;;;;;;;14.66;86.53;100255.47;2107337;28;20020;-59
2021/08/08 03:13:58;;;;;;;15.87;5.83;;;;;;;14.67;86.96;100257.16;2115843;28;20568;-61
2021/08/08 03:14:58;;;;;;;18.97;6.00;;;;;;;14.67;86.16;100245.81;2116465;28;20057;-61
2021/08/08 03:15:58;;;;;;;12.77;5.90;;;;;;;14.67;86.93;100251.91;2115718;28;20122;-60
2021/08/08 03:16:59;;;;;;;13.47;6.23;;;;;;;14.67;86.97;100254.53;2107412;28;20106;-58
2021/08/08 03:17:59;;;;;;;9.47;5.20;;;;;;;14.68;85.94;100258.00;2107257;28;20059;-60
2021/08/08 03:18:59;;;;;;;15.73;6.43;;;;;;;14.67;86.53;100251.91;2107337;28;20151;-60
2021/08/08 03:19:59;;;;;;;16.00;6.13;;;;;;;14.66;85.75;100250.22;2115703;28;20077;-59
2021/08/08 03:21:00;;;;;;;13.77;5.33;;;;;;;14.67;87.73;100249.28;2115850;28;20024;-61
2021/08/08 03:22:00;;;;;;;16.63;6.40;;;;;;;14.65;86.46;100258.22;2107374;28;20035;-61
2021/08/08 03:23:00;;;;;;;15.00;5.70;;;;;;;14.64;85.69;100256.50;2107395;28;20290;-59
2021/08/08 03:24:01;;;;;;;15.63;5.73;;;;;;;14.65;87.07;100253.78;2107271;28;20120;-59
2021/08/08 03:25:01;;;;;;;12.57;4.63;;;;;;;14.66;87.44;100252.84;2098980;28;20024;-62
2021/08/08 03:26:02;;;;;;;8.00;5.10;;;;;;;14.68;87.51;100252.75;2099005;28;20465;-60
2021/08/08 03:27:02;;;;;;;14.13;5.57;;;;;;;14.69;87.05;100264.94;2107204;28;20055;-60
2021/08/08 03:28:02;;;;;;;17.13;7.63;;;;;;;14.67;86.49;100251.91;2099012;28;20024;-60
2021/08/08 03:29:03;;;;;;;17.70;6.17;;;;;;;14.67;86.79;100266.81;2116268;28;20030;-60
2021/08/08 03:30:06;;;;;;;17.57;5.97;;;;;;;14.63;85.37;100253.06;2107159;28;20057;-61
2021/08/08 03:31:06;;;;;;;15.98;6.20;;;;;;;14.67;86.88;100256.31;2110431;28;20028;-61
2021/08/08 03:32:07;;;;;;;14.80;6.07;;;;;;;14.66;87.25;100249.38;2115593;28;20020;-60
2021/08/08 03:33:07;;;;;;;14.00;5.47;;;;;;;14.64;86.36;100257.38;2115723;28;20539;-61
2021/08/08 03:34:07;;;;;;;22.50;6.30;;;;;;;14.64;86.26;100259.97;2116312;28;20007;-61
2021/08/08 03:35:08;;;;;;;15.33;5.47;;;;;;;14.65;87.35;100253.78;2115690;28;20099;-61
2021/08/08 03:36:10;;;;;;;15.40;6.32;;;;;;;14.66;86.54;100259.88;2098846;28;20009;-59
2021/08/08 03:37:11;;;;;;;13.27;5.97;;;;;;;14.63;85.46;100260.09;2107523;28;20015;-62
2021/08/08 03:38:11;;;;;;;12.70;5.63;;;;;;;14.64;85.55;100257.38;2115693;28;20434;-59
2021/08/08 03:39:11;;;;;;;17.23;6.10;;;;;;;14.66;86.99;100263.34;2115661;28;20910;-61
2021/08/08 03:40:12;;;;;;;14.63;5.63;;;;;;;14.63;85.29;100260.94;2115609;28;20108;-60
2021/08/08 03:41:12;;;;;;;11.90;5.57;;;;;;;14.63;84.82;100263.56;2098891;28;20028;-61
2021/08/08 03:42:13;;;;;;;15.97;5.83;;;;;;;14.63;84.88;100271.44;2107224;28;20116;-59
2021/08/08 03:43:13;;;;;;;14.93;6.90;;;;;;;14.63;84.65;100254.84;2116128;28;20379;-61
2021/08/08 03:44:13;;;;;;;14.20;5.43;;;;;;;14.63;85.19;100279.31;2115572;28;20118;-59
2021/08/08 03:45:13;;;;;;;21.17;8.47;;;;;;;14.64;84.68;100278.38;2115533;28;20030;-60
2021/08/08 03:46:13;;;;;;;21.37;6.83;;;;;;;14.67;86.13;100279.94;2116167;28;20047;-60
2021/08/08 03:47:14;;;;;;;16.47;6.33;;;;;;;14.65;85.25;100279.22;2115667;28;20058;-61
2021/08/08 03:48:14;;;;;;;21.00;8.60;;;;;;;14.65;86.42;100274.78;2107184;28;20020;-60
2021/08/08 03:49:14;;;;;;;17.20;5.40;;;;;;;14.66;86.12;100275.63;2115144;28;20055;-59
2021/08/08 03:50:15;;;;;;;14.60;6.85;;;;;;;14.64;85.38;100288.88;2107055;28;20023;-61
2021/08/08 03:51:15;;;;;;;14.67;5.97;;;;;;;14.63;84.95;100291.59;2098863;28;20484;-61
2021/08/08 03:52:15;;;;;;;14.70;6.10;;;;;;;14.62;84.98;100288.16;2115487;28;20011;-61
2021/08/08 03:53:15;;;;;;;18.23;6.00;;;;;;;14.62;85.26;100285.53;2115560;28;20094;-60
2021/08/08 03:54:15;;;;;;;9.93;5.40;;;;;;;14.64;85.65;100293.28;2107059;28;20016;-60
2021/08/08 03:55:16;;;;;;;17.97;6.43;;;;;;;14.63;85.69;100295.06;2106903;28;20016;-60
2021/08/08 03:56:16;;;;;;;12.43;5.80;;;;;;;14.63;85.42;100289.81;2106888;28;20493;-59
2021/08/08 03:57:16;;;;;;;8.73;4.57;;;;;;;14.64;86.75;100294.13;2115505;28;20012;-61
2021/08/08 03:58:17;;;;;;;20.83;5.83;;;;;;;14.62;85.70;100290.78;2107073;28;20020;-59
2021/08/08 03:59:17;;;;;;;22.17;6.17;;;;;;;14.61;84.03;100301.38;2098629;28;20324;-61
2021/08/08 04:00:17;;;;;;;17.97;6.00;;;;;;;14.61;84.27;100294.31;2098609;28;20056;-61
2021/08/08 04:01:17;;;;;;;17.77;6.43;;;;;;;14.60;85.11;100295.28;2106898;28;20035;-60
2021/08/08 04:02:17;;;;;;;13.67;6.70;;;;;;;14.61;84.74;100293.50;2106890;28;20016;-59
2021/08/08 04:03:18;;;;;;;21.00;6.30;;;;;;;14.60;83.51;100297.06;2098693;28;20017;-60
2021/08/08 04:04:18;;;;;;;13.13;5.80;;;;;;;14.62;84.44;100301.28;2106971;28;20012;-61
2021/08/08 04:05:18;;;;;;;12.80;5.47;;;;;;;14.62;85.08;100301.28;2116047;28;20022;-61
2021/08/08 04:06:18;;;;;;;21.30;6.33;;;;;;;14.61;85.45;100299.56;2116008;28;20016;-60
2021/08/08 04:07:19;;;;;;;18.47;6.07;;;;;;;14.61;84.93;100304.81;2115392;28;20527;-59
2021/08/08 04:08:19;;;;;;;12.87;6.77;;;;;;;14.62;85.70;100296.03;2115437;28;20511;-60
2021/08/08 04:09:19;;;;;;;13.07;5.87;;;;;;;14.59;85.15;100301.50;2115929;28;20023;-59
2021/08/08 04:10:19;;;;;;;11.20;5.60;;;;;;;14.59;85.23;100301.50;2115376;28;20026;-60
2021/08/08 04:11:20;;;;;;;10.53;5.27;;;;;;;14.55;84.78;100297.38;2098650;28;20016;-59
2021/08/08 04:12:20;;;;;;;11.00;5.50;;;;;;;14.56;84.22;100299.06;2106914;28;20020;-60
2021/08/08 04:13:20;;;;;;;11.57;4.73;;;;;;;14.58;84.82;100304.22;2106892;28;20361;-61
2021/08/08 04:14:20;;;;;;;17.10;5.80;;;;;;;14.58;85.38;100298.97;2115352;28;20491;-59
2021/08/08 04:15:21;;;;;;;10.50;6.10;;;;;;;14.56;85.89;100301.69;2115957;28;20484;-60
2021/08/08 04:16:21;;;;;;;15.97;6.47;;;;;;;14.54;85.02;100303.56;2115289;28;20550;-60
2021/08/08 04:17:21;;;;;;;12.83;4.37;;;;;;;14.55;87.18;100310.50;2107051;28;20468;-61
2021/08/08 04:18:21;;;;;;;12.23;6.27;;;;;;;14.55;86.84;100300.84;2115276;28;20016;-59
2021/08/08 04:19:21;;;;;;;16.43;6.53;;;;;;;14.52;84.47;100310.72;2115940;28;20454;-60
2021/08/08 04:20:22;;;;;;;16.87;5.87;;;;;;;14.53;86.04;100305.38;2106838;28;20016;-59
2021/08/08 04:21:22;;;;;;;15.97;6.07;;;;;;;14.53;84.28;100307.13;2098440;28;20549;-61
2021/08/08 04:22:22;;;;;;;11.87;4.87;;;;;;;14.52;84.86;100308.09;2115196;28;20051;-60
2021/08/08 04:23:22;;;;;;;15.23;7.27;;;;;;;14.51;84.71;100315.13;2106723;28;20050;-59
2021/08/08 04:24:23;;;;;;;17.97;6.23;;;;;;;14.50;83.71;100313.44;2090391;28;20109;-59
2021/08/08 04:25:23;;;;;;;14.47;6.47;;;;;;;14.50;84.35;100315.22;2106765;28;20461;-60
2021/08/08 04:26:23;;;;;;;17.60;7.77;;;;;;;14.49;84.05;100303.91;2115407;28;20031;-61
2021/08/08 04:27:23;;;;;;;16.67;7.30;;;;;;;14.52;84.49;100310.72;2106881;28;20529;-60
2021/08/08 04:28:24;;;;;;;22.00;6.43;;;;;;;14.53;84.45;100312.38;2098482;28;20413;-59
2021/08/08 04:29:24;;;;;;;10.80;5.67;;;;;;;14.54;84.92;100317.53;2098446;28;20016;-63
2021/08/08 04:30:24;;;;;;;11.70;6.00;;;;;;;14.53;86.38;100315.88;2098279;28;20013;-60
2021/08/08 04:31:24;;;;;;;14.93;5.43;;;;;;;14.55;86.64;100315.78;2090064;28;20020;-61
2021/08/08 04:32:25;;;;;;;11.83;5.90;;;;;;;14.54;85.73;100309.66;2106744;28;20024;-61
2021/08/08 04:33:25;;;;;;;11.18;5.20;;;;;;;14.55;86.14;100315.78;2106621;28;20118;-59
2021/08/08 04:34:26;;;;;;;16.03;6.30;;;;;;;14.55;86.30;100315.78;2098472;28;20107;-62
2021/08/08 04:35:28;;;;;;;15.48;5.72;;;;;;;14.56;86.23;100312.19;2115147;28;20015;-61
2021/08/08 04:36:28;;;;;;;16.50;5.88;;;;;;;14.56;84.31;100314.81;2123529;27;20035;-60
2021/08/08 04:37:28;;;;;;;11.53;5.30;;;;;;;14.56;84.96;100322.69;2115113;28;20023;-60
2021/08/08 04:38:28;;;;;;;11.60;5.00;;;;;;;14.56;84.73;100322.69;2106798;28;20024;-60
2021/08/08 04:39:28;;;;;;;15.50;5.83;;;;;;;14.55;84.67;100319.22;2106600;28;20027;-61